Time;durP1;ratioP1;P1;durP2;ratioP2;P2;SDS_P1;SDS_P2;PMS_P1;PMS_P2;Temp;Humidity;BMP_temperature;BMP_pressure;BME280_temperature;BME280_humidity;BME280_pressure;Samples;Min_cycle;Max_cycle;Signal;HPM_P1;HPM_P2
2021/12/04 06:02:26;;;;;;;8.47;4.80;;;4.30;99.90;;;;;;4971867;23;20270;-79
2021/12/04 06:04:53;;;;;;;8.65;5.10;;;4.30;99.90;;;;;;4915914;29;20364;-79
2021/12/04 06:07:20;;;;;;;9.13;5.40;;;4.30;99.90;;;;;;4915642;29;20051;-79
2021/12/04 06:09:47;;;;;;;10.55;5.57;;;4.30;99.90;;;;;;4910058;29;20106;-78
2021/12/04 06:12:14;;;;;;;9.38;5.45;;;4.30;99.90;;;;;;4913306;29;20822;-80
2021/12/04 06:14:45;;;;;;;9.25;5.78;;;4.30;99.90;;;;;;4909778;29;20044;-79
2021/12/04 06:17:12;;;;;;;12.27;6.30;;;4.30;99.90;;;;;;4913858;29;20048;-79
2021/12/04 06:22:41;;;;;;;10.13;5.55;;;4.30;99.90;;;;;;4914958;29;20138;-76
2021/12/04 06:25:10;;;;;;;9.10;5.43;;;4.20;99.90;;;;;;4909975;29;20052;-75
2021/12/04 06:27:38;;;;;;;9.35;4.95;;;4.20;99.90;;;;;;4913998;29;20054;-75
2021/12/04 06:30:07;;;;;;;9.55;5.25;;;4.20;99.90;;;;;;4914048;29;20139;-76
2021/12/04 06:32:35;;;;;;;9.95;5.53;;;4.20;99.90;;;;;;4914108;29;20135;-77
2021/12/04 06:35:05;;;;;;;10.13;5.32;;;4.20;99.90;;;;;;4914166;29;20060;-77
2021/12/04 06:37:33;;;;;;;8.35;5.43;;;4.20;99.90;;;;;;4914072;29;20088;-75
2021/12/04 06:40:00;;;;;;;9.13;5.70;;;4.30;99.90;;;;;;4914802;29;20135;-77
2021/12/04 06:42:28;;;;;;;9.65;5.72;;;4.30;99.90;;;;;;4913654;29;20100;-77
2021/12/04 06:44:56;;;;;;;8.60;5.25;;;4.40;99.90;;;;;;4914702;29;20052;-79
2021/12/04 06:47:23;;;;;;;10.20;5.30;;;4.40;99.90;;;;;;4914487;29;20060;-77
2021/12/04 06:49:53;;;;;;;7.70;4.38;;;4.40;99.90;;;;;;4914043;29;20131;-75
2021/12/04 06:52:25;;;;;;;7.25;4.60;;;4.40;99.90;;;;;;4914185;29;20490;-78
2021/12/04 06:54:55;;;;;;;7.22;4.30;;;4.50;99.90;;;;;;4917368;29;20087;-80
2021/12/04 06:57:23;;;;;;;8.15;4.45;;;4.50;99.90;;;;;;4918440;29;20052;-77
2021/12/04 06:59:52;;;;;;;7.85;4.78;;;4.60;99.90;;;;;;4917517;29;20573;-76
2021/12/04 07:02:20;;;;;;;9.80;5.70;;;4.60;99.90;;;;;;4914480;29;20060;-78
2021/12/04 07:04:47;;;;;;;8.30;4.75;;;4.70;99.90;;;;;;4917784;29;20041;-77
2021/12/04 07:07:15;;;;;;;6.45;4.00;;;4.70;99.90;;;;;;4917467;29;20552;-77
2021/12/04 07:09:44;;;;;;;5.70;3.22;;;4.70;99.90;;;;;;4917931;29;20132;-81
2021/12/04 07:12:12;;;;;;;5.32;2.83;;;4.70;99.90;;;;;;4916541;29;20876;-80
2021/12/04 07:14:39;;;;;;;4.65;2.53;;;4.80;99.90;;;;;;4917585;29;20136;-78
2021/12/04 07:17:08;;;;;;;5.95;3.08;;;4.80;99.90;;;;;;4918952;29;20162;-76
2021/12/04 07:19:35;;;;;;;5.47;3.20;;;4.90;99.90;;;;;;4919640;29;20134;-79
2021/12/04 07:22:04;;;;;;;8.68;4.22;;;4.90;99.90;;;;;;4917283;29;20135;-80
2021/12/04 07:24:32;;;;;;;8.48;4.88;;;4.90;99.90;;;;;;4917682;29;20108;-79
2021/12/04 07:27:01;;;;;;;10.30;5.95;;;5.00;99.90;;;;;;4913077;29;20048;-79
2021/12/04 07:29:28;;;;;;;9.35;6.07;;;5.00;99.90;;;;;;4911013;29;20049;-79
2021/12/04 07:31:55;;;;;;;10.30;5.80;;;5.00;99.90;;;;;;4915118;29;20055;-79
2021/12/04 07:34:22;;;;;;;8.82;5.47;;;5.00;99.90;;;;;;4914469;29;20397;-75
2021/12/04 07:36:50;;;;;;;10.32;5.65;;;4.90;99.90;;;;;;4915808;29;20044;-77
2021/12/04 07:39:17;;;;;;;9.73;5.80;;;4.90;99.90;;;;;;4915317;29;20040;-74
2021/12/04 07:41:44;;;;;;;8.93;5.05;;;4.90;99.90;;;;;;4916574;29;20051;-73
2021/12/04 07:44:12;;;;;;;11.38;5.88;;;4.90;99.90;;;;;;4916113;29;20048;-76
2021/12/04 07:46:41;;;;;;;10.13;6.40;;;4.90;99.90;;;;;;4914143;29;20062;-77
2021/12/04 07:49:09;;;;;;;10.88;6.40;;;4.90;99.90;;;;;;4916456;29;20062;-76
2021/12/04 07:51:36;;;;;;;9.40;5.90;;;4.90;99.90;;;;;;4916941;29;20487;-75
2021/12/04 07:54:03;;;;;;;7.93;4.82;;;4.80;99.90;;;;;;4916820;29;20056;-74
2021/12/04 07:56:31;;;;;;;8.25;4.90;;;4.80;99.90;;;;;;4916646;29;20453;-77
2021/12/04 07:58:59;;;;;;;7.25;4.63;;;4.90;99.90;;;;;;4915466;29;20409;-79
2021/12/04 08:01:28;;;;;;;6.60;3.58;;;4.90;99.90;;;;;;4914787;29;20052;-74
2021/12/04 08:03:56;;;;;;;4.50;2.75;;;4.90;99.90;;;;;;4916511;29;20142;-76
2021/12/04 08:06:23;;;;;;;6.10;3.30;;;5.00;99.90;;;;;;4917288;29;20127;-76
2021/12/04 08:08:52;;;;;;;6.32;3.53;;;5.10;99.90;;;;;;4913075;29;20056;-78
2021/12/04 08:11:19;;;;;;;5.97;3.38;;;5.10;99.90;;;;;;4913257;29;20056;-76
2021/12/04 08:13:47;;;;;;;5.57;3.08;;;5.10;99.90;;;;;;4916114;29;20142;-79
2021/12/04 08:16:15;;;;;;;5.30;2.92;;;5.20;99.90;;;;;;4915768;29;20063;-78
2021/12/04 08:18:43;;;;;;;4.50;2.70;;;5.30;99.90;;;;;;4916422;29;20079;-79
2021/12/04 08:21:10;;;;;;;4.18;2.33;;;5.30;99.90;;;;;;4916449;29;20401;-77
2021/12/04 08:23:37;;;;;;;4.40;2.40;;;5.40;99.90;;;;;;4911116;29;20048;-78
2021/12/04 08:26:05;;;;;;;4.53;1.95;;;5.50;99.90;;;;;;4917179;29;20075;-76
2021/12/04 08:28:32;;;;;;;3.45;1.83;;;5.50;99.90;;;;;;4916284;29;20047;-76
2021/12/04 08:30:59;;;;;;;2.65;1.15;;;5.60;99.90;;;;;;4915567;29;20135;-78
2021/12/04 08:33:26;;;;;;;1.77;0.80;;;5.60;99.90;;;;;;4915764;29;20171;-76
2021/12/04 08:35:55;;;;;;;1.73;0.70;;;5.70;99.90;;;;;;4916776;29;20059;-75
2021/12/04 08:38:23;;;;;;;1.58;0.60;;;5.80;99.90;;;;;;4915950;29;20080;-76
2021/12/04 08:40:52;;;;;;;2.10;0.80;;;5.80;99.90;;;;;;4915891;29;20131;-76
2021/12/04 08:43:19;;;;;;;2.55;0.60;;;5.90;99.90;;;;;;4914687;29;20541;-75
2021/12/04 08:45:47;;;;;;;1.95;0.82;;;5.90;99.90;;;;;;4916587;29;20052;-75
2021/12/04 08:48:14;;;;;;;2.17;0.80;;;6.00;99.90;;;;;;4915135;29;20148;-78
2021/12/04 08:50:43;;;;;;;1.92;0.70;;;6.10;99.90;;;;;;4916232;29;20573;-80
2021/12/04 08:53:12;;;;;;;2.20;0.80;;;6.10;99.90;;;;;;4916400;29;20087;-79
2021/12/04 08:55:42;;;;;;;2.42;1.10;;;6.20;99.90;;;;;;4915985;29;20048;-76
2021/12/04 08:58:11;;;;;;;2.63;0.90;;;6.20;99.90;;;;;;4914370;29;20132;-80
2021/12/04 09:00:48;;;;;;;1.92;0.70;;;6.30;99.90;;;;;;4897306;29;20055;-77
2021/12/04 09:03:19;;;;;;;3.08;1.13;;;6.30;99.90;;;;;;4905162;29;20065;-80
2021/12/04 09:05:46;;;;;;;2.03;0.77;;;6.00;99.90;;;;;;4897196;29;20513;-76
2021/12/04 09:08:15;;;;;;;2.03;0.80;;;6.40;99.90;;;;;;4897586;29;20053;-79
2021/12/04 09:10:44;;;;;;;1.88;0.80;;;6.50;99.90;;;;;;4903760;29;20055;-78
2021/12/04 09:13:12;;;;;;;1.45;0.60;;;6.50;99.90;;;;;;4915457;29;20063;-75
2021/12/04 09:15:40;;;;;;;1.52;0.60;;;6.60;99.90;;;;;;4915769;29;20498;-79
2021/12/04 09:18:08;;;;;;;1.75;0.60;;;6.60;99.90;;;;;;4912177;29;20055;-74
2021/12/04 09:20:36;;;;;;;1.45;0.60;;;6.70;99.90;;;;;;4916003;29;20055;-75
2021/12/04 09:23:09;;;;;;;2.85;1.10;;;6.70;99.90;;;;;;4915957;29;20048;-74
2021/12/04 09:25:41;;;;;;;4.45;1.92;;;6.70;99.90;;;;;;4916450;29;20047;-74
2021/12/04 09:28:16;;;;;;;6.95;3.53;;;6.80;99.90;;;;;;4916235;29;20056;-78
2021/12/04 10:01:52;;;;;;;6.70;3.78;;;6.80;99.90;;;;;;4914459;29;20099;-75
2021/12/04 10:13:09;;;;;;;5.13;2.60;;;7.10;99.90;;;;;;4928774;29;20603;-76
2021/12/04 10:21:35;;;;;;;2.85;1.10;;;7.40;99.90;;;;;;4881208;29;20044;-78
2021/12/04 10:35:13;;;;;;;2.08;0.73;;;8.00;99.90;;;;;;4915181;29;20132;-79
2021/12/04 10:37:54;;;;;;;3.00;1.02;;;8.10;99.90;;;;;;4919363;29;20058;-78
2021/12/04 10:40:24;;;;;;;1.65;0.70;;;8.30;99.90;;;;;;4921352;29;20061;-75
2021/12/04 10:42:56;;;;;;;2.00;0.88;;;8.30;99.90;;;;;;4923003;29;20116;-76
2021/12/04 10:45:32;;;;;;;2.08;0.80;;;8.40;99.90;;;;;;4918821;29;20052;-77
2021/12/04 10:48:07;;;;;;;3.03;0.93;;;8.50;99.90;;;;;;4919615;29;20052;-77
2021/12/04 10:50:42;;;;;;;;;;;8.50;99.90;;;;;;4919391;29;20055;-77
2021/12/04 10:53:13;;;;;;;1.52;0.63;;;8.60;99.90;;;;;;4919033;29;19923;-75
2021/12/04 10:55:46;;;;;;;1.92;0.68;;;8.60;99.90;;;;;;4918637;29;20048;-79
2021/12/04 10:59:02;;;;;;;2.58;0.80;;;8.70;99.90;;;;;;4919012;29;20104;-77
2021/12/04 11:01:47;;;;;;;2.33;0.85;;;8.70;99.90;;;;;;4919289;29;20059;-77
2021/12/04 11:04:28;;;;;;;1.73;0.60;;;8.70;99.90;;;;;;4919454;29;20156;-75
2021/12/04 11:21:24;;;;;;;1.85;0.70;;;9.00;99.90;;;;;;4918392;29;20058;-79
2021/12/04 11:24:22;;;;;;;3.80;1.20;;;9.10;99.90;;;;;;4918685;29;20048;-78
2021/12/04 11:38:08;;;;;;;2.90;0.95;;;9.20;99.90;;;;;;4919543;29;20048;-78
2021/12/04 11:43:49;;;;;;;1.55;0.60;;;9.30;99.90;;;;;;4860109;29;20049;-78
2021/12/04 11:46:22;;;;;;;1.50;0.60;;;9.40;99.90;;;;;;4911645;29;20169;-80
2021/12/04 11:48:49;;;;;;;1.45;0.68;;;9.40;99.90;;;;;;4917278;29;20053;-83
2021/12/04 11:51:20;;;;;;;1.90;0.80;;;9.40;99.90;;;;;;4917732;29;20048;-78
2021/12/04 11:53:51;;;;;;;2.50;0.65;;;9.40;99.90;;;;;;4917119;29;20139;-80
2021/12/04 11:56:21;;;;;;;2.40;0.80;;;9.30;99.90;;;;;;4917442;29;20450;-80
2021/12/04 11:58:50;;;;;;;1.77;0.70;;;9.30;99.90;;;;;;4917801;29;20052;-79
2021/12/04 12:01:30;;;;;;;1.88;0.60;;;9.30;99.90;;;;;;4898666;29;20067;-81
2021/12/04 12:04:00;;;;;;;2.00;0.70;;;9.20;99.90;;;;;;4898611;29;20088;-80
2021/12/04 12:06:35;;;;;;;1.98;0.57;;;9.20;99.90;;;;;;4905440;29;20074;-77
2021/12/04 12:09:12;;;;;;;1.10;0.40;;;9.30;99.90;;;;;;4915989;29;20051;-81
2021/12/04 12:11:50;;;;;;;1.95;0.60;;;9.30;99.90;;;;;;4917538;29;20454;-79
2021/12/04 12:14:20;;;;;;;1.95;0.60;;;9.30;99.90;;;;;;4916635;29;20752;-80
2021/12/04 12:16:52;;;;;;;1.77;0.60;;;9.30;99.90;;;;;;4916928;29;20055;-80
2021/12/04 12:19:28;;;;;;;1.25;0.60;;;9.30;99.90;;;;;;4916489;29;20052;-81
2021/12/04 12:22:01;;;;;;;1.45;0.60;;;9.30;99.90;;;;;;4917341;29;20048;-79
2021/12/04 12:27:27;;;;;;;1.38;0.50;;;9.30;99.90;;;;;;4904550;29;20514;-79
2021/12/04 12:33:27;;;;;;;0.93;0.40;;;9.40;99.90;;;;;;4858634;29;20427;-80
2021/12/04 12:36:02;;;;;;;1.05;0.55;;;9.50;99.90;;;;;;4911136;29;20055;-79
2021/12/04 12:38:49;;;;;;;0.52;0.30;;;9.50;99.90;;;;;;4916942;29;20048;-80
2021/12/04 12:41:27;;;;;;;0.73;0.30;;;9.60;99.90;;;;;;4914811;29;20078;-80
2021/12/04 12:44:06;;;;;;;0.98;0.40;;;9.60;99.90;;;;;;4915452;29;20048;-79
2021/12/04 12:46:37;;;;;;;0.98;0.32;;;9.60;99.90;;;;;;4916446;29;20591;-81
2021/12/04 12:49:18;;;;;;;0.40;0.30;;;9.60;99.90;;;;;;4916036;29;20469;-80
2021/12/04 12:51:55;;;;;;;0.57;0.30;;;9.60;99.90;;;;;;4916123;29;21995;-81
2021/12/04 12:54:27;;;;;;;0.98;0.45;;;9.50;99.90;;;;;;4916722;29;20059;-79
2021/12/04 12:57:08;;;;;;;0.80;0.40;;;9.50;99.90;;;;;;4910886;29;20044;-79
2021/12/04 12:59:42;;;;;;;1.42;0.50;;;9.50;99.90;;;;;;4925243;29;20083;-80
2021/12/04 13:13:33;;;;;;;3.93;1.40;;;9.60;99.90;;;;;;4905705;29;20100;-76
2021/12/04 13:16:13;;;;;;;1.98;0.73;;;9.60;99.90;;;;;;4914636;29;20083;-75
2021/12/04 13:18:40;;;;;;;2.03;0.50;;;9.60;99.90;;;;;;4896199;29;20127;-73
2021/12/04 13:21:11;;;;;;;1.45;0.50;;;9.60;99.90;;;;;;4900528;29;20135;-74
2021/12/04 13:23:40;;;;;;;1.90;0.50;;;9.60;99.90;;;;;;4913312;29;20132;-74
2021/12/04 13:26:11;;;;;;;2.08;0.63;;;9.50;99.90;;;;;;4912565;29;20044;-77
2021/12/04 13:28:44;;;;;;;0.77;0.40;;;9.60;99.90;;;;;;4913483;29;20123;-75
2021/12/04 13:31:11;;;;;;;1.25;0.50;;;9.50;99.90;;;;;;4914441;29;20650;-76
2021/12/04 13:33:43;;;;;;;1.52;0.55;;;9.50;99.90;;;;;;4912335;29;20052;-76
2021/12/04 13:36:15;;;;;;;1.23;0.50;;;9.50;99.90;;;;;;4911676;29;20070;-75
2021/12/04 13:38:42;;;;;;;1.33;0.50;;;9.50;99.90;;;;;;4912273;29;20489;-75
2021/12/04 13:41:09;;;;;;;0.60;0.45;;;9.50;99.90;;;;;;4912576;29;20052;-75
2021/12/04 13:43:37;;;;;;;1.35;0.60;;;9.50;99.90;;;;;;4911797;29;20112;-74
2021/12/04 13:46:06;;;;;;;1.35;0.50;;;9.50;99.90;;;;;;4912040;29;20121;-75
2021/12/04 13:48:36;;;;;;;1.00;0.45;;;9.50;99.90;;;;;;4910818;29;20048;-74
2021/12/04 13:51:04;;;;;;;1.23;0.50;;;9.50;99.90;;;;;;4912379;29;20478;-76
2021/12/04 13:53:35;;;;;;;1.55;0.75;;;9.50;99.90;;;;;;4912075;29;20122;-77
2021/12/04 13:56:10;;;;;;;1.50;0.60;;;9.50;99.90;;;;;;4912327;29;20084;-78
2021/12/04 13:58:46;;;;;;;2.60;0.75;;;9.50;99.90;;;;;;4911265;29;20044;-78
2021/12/04 14:01:16;;;;;;;1.30;0.60;;;9.50;99.90;;;;;;4911296;29;20052;-78
2021/12/04 14:03:45;;;;;;;2.13;0.57;;;9.40;99.90;;;;;;4915305;29;20048;-78
2021/12/04 14:06:15;;;;;;;1.70;0.60;;;9.50;99.90;;;;;;4915579;29;20099;-76
2021/12/04 14:08:43;;;;;;;1.70;0.60;;;9.50;99.90;;;;;;4915715;29;20056;-78
2021/12/04 14:11:10;;;;;;;1.65;0.65;;;9.50;99.90;;;;;;4915635;29;20052;-78
2021/12/04 14:13:39;;;;;;;1.50;0.57;;;9.50;99.90;;;;;;4914610;29;20056;-78
2021/12/04 14:16:06;;;;;;;0.47;0.30;;;9.50;99.90;;;;;;4915770;29;20208;-76
2021/12/04 14:18:36;;;;;;;1.38;0.47;;;9.50;99.90;;;;;;4915204;29;20168;-75
2021/12/04 14:21:03;;;;;;;1.25;0.40;;;9.50;99.90;;;;;;4915858;29;20111;-75
2021/12/04 14:23:33;;;;;;;6.78;2.40;;;9.40;99.90;;;;;;4915447;29;20136;-78
2021/12/04 14:26:03;;;;;;;17.75;8.50;;;9.40;99.90;;;;;;4913796;29;20048;-76
2021/12/04 14:28:35;;;;;;;29.63;13.70;;;9.40;99.90;;;;;;4914767;29;20681;-75
2021/12/04 14:31:02;;;;;;;18.10;8.23;;;9.40;99.90;;;;;;4915336;29;20062;-77
2021/12/04 14:33:29;;;;;;;5.28;2.45;;;9.40;99.90;;;;;;4914548;29;20059;-76
2021/12/04 14:35:58;;;;;;;2.08;0.80;;;9.40;99.90;;;;;;4911634;29;20079;-76
2021/12/04 14:38:28;;;;;;;0.98;0.40;;;9.40;99.90;;;;;;4914658;29;20044;-74
2021/12/04 14:41:00;;;;;;;1.13;0.43;;;9.40;99.90;;;;;;4915397;29;20051;-74
2021/12/04 14:43:32;;;;;;;1.35;0.50;;;9.40;99.90;;;;;;4913114;29;20678;-77
2021/12/04 14:46:00;;;;;;;1.80;0.60;;;9.40;99.90;;;;;;4914646;29;20155;-74
2021/12/04 14:48:33;;;;;;;1.50;0.60;;;9.30;99.90;;;;;;4914631;29;20135;-78
2021/12/04 14:51:06;;;;;;;1.85;0.70;;;9.30;99.90;;;;;;4914681;29;20486;-75
2021/12/04 14:53:35;;;;;;;1.00;0.40;;;9.30;99.90;;;;;;4914597;29;20052;-78
2021/12/04 14:56:07;;;;;;;1.08;0.40;;;9.30;99.90;;;;;;4914476;29;20055;-75
2021/12/04 14:58:35;;;;;;;1.45;0.50;;;9.30;99.90;;;;;;4915126;29;20052;-75
2021/12/04 15:01:06;;;;;;;2.58;0.60;;;9.20;99.90;;;;;;4914380;29;20066;-81
2021/12/04 15:03:37;;;;;;;1.02;0.50;;;9.30;99.90;;;;;;4914591;29;20088;-79
2021/12/04 15:06:08;;;;;;;0.82;0.40;;;9.30;99.90;;;;;;4914284;29;20052;-80
2021/12/04 15:08:39;;;;;;;1.13;0.40;;;9.20;99.90;;;;;;4914880;29;20067;-78
2021/12/04 15:11:09;;;;;;;1.10;0.40;;;9.20;99.90;;;;;;4914175;29;20447;-78
2021/12/04 15:13:41;;;;;;;1.35;0.40;;;9.20;99.90;;;;;;4914081;29;20056;-79
2021/12/04 15:16:14;;;;;;;1.13;0.38;;;9.20;99.90;;;;;;4915152;29;20314;-81
2021/12/04 15:18:42;;;;;;;1.98;0.93;;;9.30;99.90;;;;;;4914470;29;20060;-77
2021/12/04 15:21:15;;;;;;;2.60;1.00;;;9.30;99.90;;;;;;4913618;29;20056;-79
2021/12/04 15:23:45;;;;;;;2.60;0.60;;;9.30;99.90;;;;;;4914564;29;20044;-79
2021/12/04 15:26:16;;;;;;;1.90;0.70;;;9.30;99.90;;;;;;4914227;29;20049;-81
2021/12/04 15:28:48;;;;;;;1.40;0.60;;;9.30;99.90;;;;;;4913965;29;20044;-79
2021/12/04 15:31:16;;;;;;;3.92;1.00;;;9.30;99.90;;;;;;4914789;29;20052;-79
2021/12/04 15:33:46;;;;;;;4.53;2.08;;;9.30;99.90;;;;;;4914169;29;20135;-80
2021/12/04 15:36:25;;;;;;;2.30;0.70;;;9.40;99.90;;;;;;4915180;29;20072;-80
2021/12/04 15:38:53;;;;;;;1.70;0.70;;;9.40;99.90;;;;;;4915068;29;20050;-79
2021/12/04 15:41:39;;;;;;;1.92;0.60;;;9.50;99.90;;;;;;4916309;29;20056;-79
2021/12/04 15:44:23;;;;;;;1.58;0.60;;;9.50;99.90;;;;;;4916194;29;20494;-77
2021/12/04 15:46:58;;;;;;;1.65;0.68;;;9.50;99.90;;;;;;4915336;29;20068;-78
2021/12/04 15:49:49;;;;;;;1.20;0.52;;;9.60;99.90;;;;;;4913453;29;20044;-79
2021/12/04 15:55:11;;;;;;;1.58;0.60;;;9.60;99.90;;;;;;4902544;29;20064;-77
2021/12/04 15:57:39;;;;;;;0.88;0.40;;;9.60;99.90;;;;;;4913885;29;20080;-82
2021/12/04 16:00:12;;;;;;;1.35;0.55;;;9.60;99.90;;;;;;4914673;29;20059;-80
2021/12/04 16:02:44;;;;;;;2.55;0.70;;;9.70;99.90;;;;;;4916103;29;20132;-81
2021/12/04 16:05:17;;;;;;;1.50;0.60;;;9.70;99.90;;;;;;4914328;29;20486;-82
2021/12/04 16:07:49;;;;;;;1.07;0.50;;;9.70;99.90;;;;;;4913978;29;20079;-78
2021/12/04 16:10:19;;;;;;;1.33;0.47;;;9.70;99.90;;;;;;4913713;29;20056;-80
2021/12/04 16:12:48;;;;;;;1.08;0.40;;;9.70;99.90;;;;;;4914169;29;20052;-78
2021/12/04 16:15:18;;;;;;;1.55;0.60;;;9.80;99.90;;;;;;4914289;29;20056;-79
2021/12/04 16:17:45;;;;;;;1.58;0.60;;;9.70;99.90;;;;;;4913376;29;20126;-80
2021/12/04 16:20:16;;;;;;;1.67;0.65;;;9.70;99.90;;;;;;4915346;29;20052;-80
2021/12/04 16:22:43;;;;;;;1.60;0.70;;;9.70;99.90;;;;;;4914205;29;20057;-81
2021/12/04 16:25:16;;;;;;;1.23;0.50;;;9.70;99.90;;;;;;4914619;29;20651;-80
2021/12/04 16:27:54;;;;;;;0.95;0.50;;;9.70;99.90;;;;;;4913277;29;20111;-80
2021/12/04 16:30:28;;;;;;;6.25;2.75;;;9.70;99.90;;;;;;4913396;29;20051;-80
2021/12/04 16:33:03;;;;;;;5.38;2.05;;;9.60;99.90;;;;;;4914175;29;20059;-80
2021/12/04 16:35:45;;;;;;;1.75;0.50;;;9.70;99.90;;;;;;4913270;29;20058;-81
2021/12/04 16:38:15;;;;;;;1.23;0.47;;;9.60;99.90;;;;;;4912548;29;20415;-78
2021/12/04 16:40:47;;;;;;;1.27;0.52;;;9.60;99.90;;;;;;4913748;29;20068;-81
2021/12/04 16:43:19;;;;;;;0.80;0.40;;;9.60;99.90;;;;;;4911306;29;20135;-79
2021/12/04 16:45:51;;;;;;;1.80;0.60;;;9.60;99.90;;;;;;4910607;29;20048;-80
2021/12/04 16:48:19;;;;;;;1.40;0.50;;;9.60;99.90;;;;;;4913169;29;20120;-79
2021/12/04 16:56:31;;;;;;;1.90;0.70;;;9.50;99.90;;;;;;4914350;29;20461;-77
2021/12/04 16:59:03;;;;;;;1.75;0.60;;;9.50;99.90;;;;;;4912791;29;20403;-78
2021/12/04 17:01:32;;;;;;;1.63;0.68;;;9.50;99.90;;;;;;4912000;29;20134;-78
2021/12/04 17:03:59;;;;;;;1.08;0.50;;;9.40;99.90;;;;;;4912694;29;20164;-79
2021/12/04 17:06:27;;;;;;;1.60;0.60;;;9.40;99.90;;;;;;4912366;29;20482;-79
2021/12/04 17:08:54;;;;;;;1.63;0.47;;;9.40;99.90;;;;;;4912870;29;20135;-80
2021/12/04 17:11:23;;;;;;;1.33;0.55;;;9.40;99.90;;;;;;4912025;29;20063;-81
2021/12/04 17:13:50;;;;;;;1.00;0.40;;;9.40;99.90;;;;;;4913796;29;20052;-84
2021/12/04 17:16:24;;;;;;;1.63;0.50;;;9.30;99.90;;;;;;4912988;29;20074;-82
2021/12/04 17:18:57;;;;;;;1.25;0.43;;;9.30;99.90;;;;;;4914520;29;20052;-82
2021/12/04 17:21:24;;;;;;;1.73;0.60;;;9.20;99.90;;;;;;4915029;29;20048;-82
2021/12/04 17:23:51;;;;;;;1.27;0.50;;;9.20;99.90;;;;;;4913972;29;20058;-85
2021/12/04 17:26:19;;;;;;;2.47;0.80;;;9.20;99.90;;;;;;4914023;29;20143;-83
2021/12/04 17:28:48;;;;;;;2.63;0.80;;;9.20;99.90;;;;;;4913528;29;20072;-84
2021/12/04 17:31:17;;;;;;;1.58;0.63;;;9.20;99.90;;;;;;4914042;29;20135;-80
2021/12/04 17:33:45;;;;;;;2.05;0.80;;;9.20;99.90;;;;;;4913962;29;20052;-81
2021/12/04 17:36:13;;;;;;;1.70;0.70;;;9.20;99.90;;;;;;4914255;29;20056;-83
2021/12/04 17:38:43;;;;;;;2.30;0.80;;;9.20;99.90;;;;;;4914686;29;20554;-86
2021/12/04 17:41:12;;;;;;;1.95;0.70;;;9.20;99.90;;;;;;4917281;29;20126;-87
2021/12/04 17:43:40;;;;;;;1.92;0.70;;;9.20;99.90;;;;;;4916489;29;20967;-87
2021/12/04 17:46:10;;;;;;;1.58;0.60;;;9.20;99.90;;;;;;4916716;29;20139;-86
2021/12/04 17:48:39;;;;;;;1.15;0.52;;;9.10;99.90;;;;;;4915738;29;20076;-83
2021/12/04 17:51:07;;;;;;;1.70;0.73;;;9.20;99.90;;;;;;4914017;29;20478;-81
2021/12/04 17:53:38;;;;;;;2.03;0.60;;;9.20;99.90;;;;;;4916725;29;20130;-86
2021/12/04 17:56:06;;;;;;;1.58;0.50;;;9.20;99.90;;;;;;4917905;29;20051;-80
2021/12/04 17:58:33;;;;;;;1.20;0.50;;;9.20;99.90;;;;;;4918596;29;20079;-80
2021/12/04 18:01:09;;;;;;;2.38;0.75;;;9.20;99.90;;;;;;4920759;29;20060;-86
2021/12/04 18:03:38;;;;;;;1.77;0.70;;;9.20;99.90;;;;;;4921317;29;20127;-85
2021/12/04 18:06:09;;;;;;;2.50;0.95;;;9.10;99.90;;;;;;4921820;29;20059;-85
2021/12/04 18:08:39;;;;;;;2.08;0.77;;;9.20;99.90;;;;;;4918271;29;20139;-87
2021/12/04 18:11:07;;;;;;;2.45;0.95;;;9.10;99.90;;;;;;4919304;29;20116;-84
2021/12/04 18:13:39;;;;;;;2.80;0.90;;;9.20;99.90;;;;;;4920203;29;20052;-86
2021/12/04 18:16:12;;;;;;;2.75;1.00;;;9.10;99.90;;;;;;4907555;29;20143;-89
2021/12/04 18:18:40;;;;;;;1.95;0.90;;;9.10;99.90;;;;;;4918530;29;20143;-82
2021/12/04 18:21:08;;;;;;;2.10;0.90;;;9.20;99.90;;;;;;4916473;29;20048;-80
2021/12/04 18:23:35;;;;;;;3.33;1.40;;;9.10;99.90;;;;;;4916803;29;20127;-83
2021/12/04 18:26:04;;;;;;;3.60;1.35;;;9.10;99.90;;;;;;4917737;29;20121;-88
2021/12/04 18:28:37;;;;;;;2.90;1.10;;;9.00;99.90;;;;;;4921854;29;20052;-87
2021/12/04 18:31:06;;;;;;;2.13;0.90;;;8.90;99.90;;;;;;4926695;29;20578;-88
2021/12/04 18:33:37;;;;;;;2.13;0.60;;;8.90;99.90;;;;;;4921844;29;20084;-87
2021/12/04 18:36:04;;;;;;;2.17;0.82;;;8.80;99.90;;;;;;4929065;29;20059;-89
2021/12/04 18:38:35;;;;;;;1.88;0.80;;;8.70;99.90;;;;;;4929155;29;20059;-90
2021/12/04 18:41:05;;;;;;;2.15;0.73;;;8.60;99.90;;;;;;4923346;29;20059;-88
2021/12/04 18:43:39;;;;;;;1.83;0.70;;;8.50;99.90;;;;;;4917272;29;20044;-77
2021/12/04 18:46:06;;;;;;;2.03;0.80;;;8.40;99.90;;;;;;4915306;29;20052;-76
2021/12/04 18:48:36;;;;;;;2.25;1.02;;;8.30;99.90;;;;;;4915254;29;20586;-78
2021/12/04 18:51:03;;;;;;;1.77;0.70;;;8.20;99.90;;;;;;4918586;29;20570;-77
2021/12/04 18:53:30;;;;;;;1.63;0.60;;;8.20;99.90;;;;;;4918708;29;20151;-80
2021/12/04 18:55:58;;;;;;;1.42;0.50;;;8.20;99.90;;;;;;4917445;29;20052;-77
2021/12/04 18:58:25;;;;;;;1.45;0.60;;;8.00;99.90;;;;;;4918722;29;20138;-79
2021/12/04 19:00:52;;;;;;;1.42;0.50;;;8.00;99.90;;;;;;4917615;29;20528;-79
2021/12/04 19:03:20;;;;;;;1.92;0.60;;;8.00;99.90;;;;;;4916344;29;20048;-79
2021/12/04 19:05:49;;;;;;;1.85;0.70;;;7.90;99.90;;;;;;4912886;29;20050;-76
2021/12/04 19:08:18;;;;;;;1.85;0.80;;;7.90;99.90;;;;;;4911048;29;20048;-79
2021/12/04 19:10:47;;;;;;;4.75;1.70;;;7.80;99.90;;;;;;4914713;29;20056;-75
2021/12/04 19:13:14;;;;;;;5.45;1.95;;;7.80;99.90;;;;;;4912786;29;20040;-75
2021/12/04 19:15:42;;;;;;;1.90;0.60;;;7.80;99.90;;;;;;4912996;29;20059;-79
2021/12/04 19:18:11;;;;;;;2.55;0.32;;;7.70;99.90;;;;;;4913140;29;20135;-80
2021/12/04 19:20:43;;;;;;;2.92;0.90;;;7.60;99.90;;;;;;4909110;29;20163;-77
2021/12/04 19:23:12;;;;;;;1.58;0.60;;;7.60;99.90;;;;;;4914467;29;20497;-79
2021/12/04 19:25:39;;;;;;;1.25;0.50;;;7.60;99.90;;;;;;4913187;29;20044;-79
2021/12/04 19:28:09;;;;;;;1.45;0.50;;;7.50;99.90;;;;;;4914059;29;20044;-78
2021/12/04 19:30:43;;;;;;;1.35;0.40;;;7.50;99.90;;;;;;4907683;29;20652;-80
2021/12/04 19:33:20;;;;;;;1.30;0.60;;;7.50;99.90;;;;;;4916297;29;20056;-83
2021/12/04 19:36:32;;;;;;;1.58;0.57;;;7.40;99.90;;;;;;4913860;29;20052;-79
2021/12/04 19:52:52;;;;;;;1.70;0.70;;;7.40;99.90;;;;;;4913753;29;20116;-79
2021/12/04 19:55:21;;;;;;;1.80;0.90;;;7.30;99.90;;;;;;4914668;29;20044;-79
2021/12/04 19:57:51;;;;;;;1.95;0.60;;;7.20;99.90;;;;;;4914837;29;20055;-79
2021/12/04 20:00:23;;;;;;;1.15;0.50;;;7.20;99.90;;;;;;4914556;29;20056;-78
2021/12/04 20:03:02;;;;;;;1.38;0.52;;;7.20;99.90;;;;;;4913961;29;20054;-79
2021/12/04 20:05:44;;;;;;;2.45;1.08;;;7.10;99.90;;;;;;4914688;29;20056;-79
2021/12/04 20:08:38;;;;;;;3.25;1.27;;;7.10;99.90;;;;;;4914411;29;20147;-79
2021/12/04 20:13:53;;;;;;;1.17;0.55;;;7.00;99.90;;;;;;4913529;29;20059;-79
2021/12/04 20:16:25;;;;;;;1.90;0.80;;;6.90;99.90;;;;;;4913324;29;20048;-80
2021/12/04 20:18:57;;;;;;;1.80;0.68;;;6.90;99.90;;;;;;4912431;29;20083;-79
2021/12/04 20:21:25;;;;;;;1.58;0.70;;;6.80;99.90;;;;;;4912804;29;20774;-77
2021/12/04 20:23:54;;;;;;;1.55;0.70;;;6.80;99.90;;;;;;4912989;29;20059;-82
2021/12/04 20:26:32;;;;;;;1.77;0.60;;;6.70;99.90;;;;;;4910515;29;20558;-78
2021/12/04 20:29:19;;;;;;;1.73;0.68;;;6.60;99.90;;;;;;4913204;29;20112;-79
2021/12/04 20:31:58;;;;;;;1.70;0.60;;;6.60;99.90;;;;;;4912882;29;20139;-79
2021/12/04 20:35:33;;;;;;;1.35;0.60;;;6.50;99.90;;;;;;4913395;29;20072;-78
2021/12/04 21:03:38;;;;;;;1.98;0.73;;;6.20;99.90;;;;;;4912591;29;19930;-80
2021/12/04 21:11:34;;;;;;;2.45;0.57;;;6.00;99.90;;;;;;4911490;29;20052;-84
2021/12/04 21:50:42;;;;;;;2.30;0.95;;;5.60;99.90;;;;;;4912224;29;20095;-77
2021/12/04 21:53:10;;;;;;;3.20;0.90;;;5.60;99.90;;;;;;4911742;29;20052;-77
2021/12/04 21:55:57;;;;;;;3.63;0.90;;;5.60;99.90;;;;;;4912230;29;20143;-78
2021/12/04 22:08:55;;;;;;;4.70;1.08;;;5.60;99.90;;;;;;4911833;29;20142;-78
2021/12/04 22:09:50;;;;;;;3.65;1.08;;;5.60;99.90;;;;;;4904837;29;20059;-78
2021/12/04 22:12:20;;;;;;;2.80;1.05;;;5.60;99.90;;;;;;4893667;29;20471;-80
2021/12/04 22:14:59;;;;;;;2.97;1.00;;;5.60;99.90;;;;;;4910276;29;20558;-81
2021/12/04 22:17:47;;;;;;;4.63;0.98;;;5.60;99.90;;;;;;4924714;29;20052;-79
2021/12/04 22:23:37;;;;;;;5.10;1.20;;;5.50;99.90;;;;;;4911483;29;20164;-79
2021/12/04 22:56:29;;;;;;;4.93;1.35;;;5.20;99.90;;;;;;4914898;29;20180;-78
2021/12/04 22:58:56;;;;;;;4.43;1.13;;;5.20;99.90;;;;;;4915506;29;20079;-78
2021/12/04 23:01:28;;;;;;;4.47;1.30;;;5.20;99.90;;;;;;4914792;29;20060;-78
2021/12/04 23:04:11;;;;;;;4.70;1.40;;;5.20;99.90;;;;;;4914083;29;20051;-78
2021/12/04 23:12:35;;;;;;;3.72;1.10;;;5.10;99.90;;;;;;4914875;29;20059;-77
2021/12/04 23:15:12;;;;;;;4.25;1.25;;;5.10;99.90;;;;;;4914086;29;20052;-78
2021/12/04 23:17:48;;;;;;;7.60;1.00;;;5.20;99.90;;;;;;4914769;29;20139;-78
2021/12/04 23:34:14;;;;;;;4.63;1.08;;;5.10;99.90;;;;;;4913998;29;20148;-79
2021/12/04 23:37:01;;;;;;;3.80;1.40;;;5.10;99.90;;;;;;4913432;29;20134;-79
